Malcolm Mc Kinnon Airport Brunswick US
ICAO: KSSI
IATA: SSI
Category: Medium
Scheduled Services: No

Elevation: 19 ft
TransAlt. 18000 ft.

Airport Communications:
ASOS:118.525
JACKSONVILLE CNTR:126.75
CTAF/UNICOM:123.05

KSSI Zoom In..

Runways:

(A) RW 04 length 5584 ft width 100 ft
---- / hdg 41

(B) RW 16 length 3313 ft width 75 ft
---- / hdg 159

(C) RW 22 length 5584 ft width 100 ft
---- / hdg 221

(D) RW 34 length 3313 ft width 75 ft
---- / hdg 339

Location; KSSI
Day. 09 / Time. 01.45 Zulu
* Altimeter: 30.14
* Temperature: 25° c. 77°f.
* Wind from: 170° Speed 06 kn.
Dewpoint: 23° c.
Visibility: 10 Statute Miles.
Clouds: Broken 11000 ft.
Conditions: Light Rain.

KSSI 090145Z AUTO 17006KT 10SM -RA BKN110 25/23 A3014 RMK AO2 LTG DSNT SW RAB15 TSB02E17 P0002 T02500233

Going to: --> -->


Wind From 170°
Speed 06 kn.

 
 
jpsmedia worldairports.se 2020   terms of use